sensor_id;sensor_type;location;lat;lon;timestamp;pressure;altitude;pressure_sealevel;temperature;humidity
804;BME280;25687;49.976;8.240;2022-10-16T00:01:18;99817.19;;;13.53;100.00
804;BME280;25687;49.976;8.240;2022-10-16T00:03:44;99811.41;;;13.50;100.00
804;BME280;25687;49.976;8.240;2022-10-16T00:06:11;99812.88;;;13.65;100.00
804;BME280;25687;49.976;8.240;2022-10-16T00:08:37;99813.28;;;13.72;100.00
804;BME280;25687;49.976;8.240;2022-10-16T00:11:11;99824.06;;;13.66;100.00
804;BME280;25687;49.976;8.240;2022-10-16T00:13:39;99828.19;;;13.68;100.00
804;BME280;25687;49.976;8.240;2022-10-16T00:16:05;99828.88;;;13.70;100.00
804;BME280;25687;49.976;8.240;2022-10-16T00:18:30;99823.13;;;13.67;100.00
804;BME280;25687;49.976;8.240;2022-10-16T00:21:05;99822.41;;;13.65;100.00
804;BME280;25687;49.976;8.240;2022-10-16T00:23:31;99824.06;;;13.42;100.00
804;BME280;25687;49.976;8.240;2022-10-16T00:25:59;99817.63;;;13.34;100.00
804;BME280;25687;49.976;8.240;2022-10-16T00:28:25;99817.19;;;13.16;100.00
804;BME280;25687;49.976;8.240;2022-10-16T00:30:50;99835.31;;;13.40;100.00
804;BME280;25687;49.976;8.240;2022-10-16T00:33:16;99838.78;;;13.52;100.00
804;BME280;25687;49.976;8.240;2022-10-16T00:35:41;99824.69;;;13.69;100.00
804;BME280;25687;49.976;8.240;2022-10-16T00:38:07;99818.72;;;13.56;100.00
804;BME280;25687;49.976;8.240;2022-10-16T00:40:32;99817.25;;;13.65;100.00
804;BME280;25687;49.976;8.240;2022-10-16T00:42:58;99818.63;;;13.82;100.00
804;BME280;25687;49.976;8.240;2022-10-16T00:45:23;99815.16;;;13.70;100.00
804;BME280;25687;49.976;8.240;2022-10-16T00:47:50;99817.56;;;13.84;100.00
804;BME280;25687;49.976;8.240;2022-10-16T00:50:28;99820.63;;;13.90;100.00
804;BME280;25687;49.976;8.240;2022-10-16T00:52:55;99827.94;;;13.96;100.00
804;BME280;25687;49.976;8.240;2022-10-16T00:55:21;99827.63;;;14.00;100.00
804;BME280;25687;49.976;8.240;2022-10-16T00:57:48;99830.56;;;14.07;100.00
804;BME280;25687;49.976;8.240;2022-10-16T01:00:20;99840.59;;;14.12;100.00
804;BME280;25687;49.976;8.240;2022-10-16T01:02:58;99859.94;;;14.06;100.00
804;BME280;25687;49.976;8.240;2022-10-16T01:05:33;99856.63;;;14.04;100.00
804;BME280;25687;49.976;8.240;2022-10-16T01:08:05;99842.97;;;13.91;100.00
804;BME280;25687;49.976;8.240;2022-10-16T01:10:45;99842.38;;;13.87;100.00
804;BME280;25687;49.976;8.240;2022-10-16T01:13:33;99844.06;;;13.75;100.00
804;BME280;25687;49.976;8.240;2022-10-16T01:16:16;99846.06;;;13.71;100.00
804;BME280;25687;49.976;8.240;2022-10-16T01:18:52;99839.03;;;13.74;100.00
804;BME280;25687;49.976;8.240;2022-10-16T01:21:33;99837.09;;;13.64;100.00
804;BME280;25687;49.976;8.240;2022-10-16T01:27:16;99845.63;;;13.53;100.00
804;BME280;25687;49.976;8.240;2022-10-16T01:29:58;99842.47;;;13.61;100.00
804;BME280;25687;49.976;8.240;2022-10-16T01:37:41;99849.50;;;13.59;100.00
804;BME280;25687;49.976;8.240;2022-10-16T01:40:11;99846.88;;;13.48;100.00
804;BME280;25687;49.976;8.240;2022-10-16T01:42:42;99850.06;;;13.51;100.00
804;BME280;25687;49.976;8.240;2022-10-16T01:45:11;99864.94;;;13.61;100.00
804;BME280;25687;49.976;8.240;2022-10-16T01:47:39;99860.63;;;13.72;100.00
804;BME280;25687;49.976;8.240;2022-10-16T01:50:06;99874.16;;;13.76;100.00
804;BME280;25687;49.976;8.240;2022-10-16T01:52:35;99874.47;;;13.71;100.00
804;BME280;25687;49.976;8.240;2022-10-16T01:55:03;99872.00;;;13.70;100.00
804;BME280;25687;49.976;8.240;2022-10-16T01:57:32;99876.47;;;13.68;100.00
804;BME280;25687;49.976;8.240;2022-10-16T02:00:05;99855.34;;;13.74;100.00
804;BME280;25687;49.976;8.240;2022-10-16T02:02:33;99864.72;;;13.88;100.00
804;BME280;25687;49.976;8.240;2022-10-16T02:05:05;99868.44;;;13.84;100.00
804;BME280;25687;49.976;8.240;2022-10-16T02:07:33;99867.38;;;13.86;100.00
804;BME280;25687;49.976;8.240;2022-10-16T02:10:00;99861.16;;;13.89;100.00
804;BME280;25687;49.976;8.240;2022-10-16T02:12:28;99869.81;;;14.01;100.00
804;BME280;25687;49.976;8.240;2022-10-16T02:14:55;99871.94;;;14.07;100.00
804;BME280;25687;49.976;8.240;2022-10-16T02:17:21;99867.09;;;14.02;100.00
804;BME280;25687;49.976;8.240;2022-10-16T02:19:48;99869.44;;;13.94;100.00
804;BME280;25687;49.976;8.240;2022-10-16T02:22:45;99874.50;;;13.96;100.00
804;BME280;25687;49.976;8.240;2022-10-16T02:25:27;99887.75;;;13.91;100.00
804;BME280;25687;49.976;8.240;2022-10-16T02:28:04;99877.41;;;13.91;100.00
804;BME280;25687;49.976;8.240;2022-10-16T02:30:44;99883.25;;;13.82;100.00
804;BME280;25687;49.976;8.240;2022-10-16T02:33:13;99874.66;;;13.81;100.00
804;BME280;25687;49.976;8.240;2022-10-16T02:35:41;99876.69;;;13.65;100.00
804;BME280;25687;49.976;8.240;2022-10-16T02:38:08;99889.31;;;13.56;100.00
804;BME280;25687;49.976;8.240;2022-10-16T02:40:34;99904.19;;;13.66;100.00
804;BME280;25687;49.976;8.240;2022-10-16T02:43:03;99908.09;;;13.71;100.00
804;BME280;25687;49.976;8.240;2022-10-16T02:45:29;99905.94;;;13.65;100.00
804;BME280;25687;49.976;8.240;2022-10-16T02:47:54;99893.06;;;13.77;100.00
804;BME280;25687;49.976;8.240;2022-10-16T02:50:19;99879.94;;;13.80;100.00
804;BME280;25687;49.976;8.240;2022-10-16T02:52:45;99889.38;;;13.68;100.00
804;BME280;25687;49.976;8.240;2022-10-16T02:55:10;99881.97;;;13.63;100.00
804;BME280;25687;49.976;8.240;2022-10-16T02:57:35;99883.97;;;13.47;100.00
804;BME280;25687;49.976;8.240;2022-10-16T03:00:04;99899.03;;;13.53;100.00
804;BME280;25687;49.976;8.240;2022-10-16T03:02:29;99902.34;;;13.55;100.00
804;BME280;25687;49.976;8.240;2022-10-16T03:04:54;99899.97;;;13.52;100.00
804;BME280;25687;49.976;8.240;2022-10-16T03:07:20;99893.19;;;13.51;100.00
804;BME280;25687;49.976;8.240;2022-10-16T03:09:45;99899.03;;;13.53;100.00
804;BME280;25687;49.976;8.240;2022-10-16T03:12:10;99902.75;;;13.62;100.00
804;BME280;25687;49.976;8.240;2022-10-16T03:14:37;99908.69;;;13.75;100.00
804;BME280;25687;49.976;8.240;2022-10-16T03:17:02;99914.66;;;13.88;100.00
804;BME280;25687;49.976;8.240;2022-10-16T03:19:27;99906.47;;;13.95;100.00
804;BME280;25687;49.976;8.240;2022-10-16T03:21:53;99910.53;;;13.86;100.00
804;BME280;25687;49.976;8.240;2022-10-16T03:24:18;99916.75;;;13.83;100.00
804;BME280;25687;49.976;8.240;2022-10-16T03:26:43;99902.22;;;13.69;100.00
804;BME280;25687;49.976;8.240;2022-10-16T03:29:08;99915.81;;;13.84;100.00
804;BME280;25687;49.976;8.240;2022-10-16T03:31:34;99913.97;;;13.98;100.00
804;BME280;25687;49.976;8.240;2022-10-16T03:33:59;99911.38;;;13.98;100.00
804;BME280;25687;49.976;8.240;2022-10-16T03:36:24;99908.31;;;13.93;100.00
804;BME280;25687;49.976;8.240;2022-10-16T03:38:50;99906.38;;;14.08;100.00
804;BME280;25687;49.976;8.240;2022-10-16T03:41:15;99917.91;;;14.03;100.00
804;BME280;25687;49.976;8.240;2022-10-16T03:43:40;99914.69;;;14.00;100.00
804;BME280;25687;49.976;8.240;2022-10-16T03:46:06;99916.63;;;14.09;100.00
804;BME280;25687;49.976;8.240;2022-10-16T03:48:31;99923.13;;;14.15;100.00
804;BME280;25687;49.976;8.240;2022-10-16T03:50:57;99928.53;;;14.12;100.00
804;BME280;25687;49.976;8.240;2022-10-16T03:53:22;99918.16;;;13.87;100.00
804;BME280;25687;49.976;8.240;2022-10-16T03:55:48;99910.72;;;13.83;100.00
804;BME280;25687;49.976;8.240;2022-10-16T03:58:13;99907.50;;;13.92;100.00
804;BME280;25687;49.976;8.240;2022-10-16T04:00:43;99916.56;;;13.98;100.00
804;BME280;25687;49.976;8.240;2022-10-16T04:03:09;99920.66;;;14.13;100.00
804;BME280;25687;49.976;8.240;2022-10-16T04:05:35;99919.97;;;14.23;100.00
804;BME280;25687;49.976;8.240;2022-10-16T04:08:00;99907.25;;;13.95;100.00
804;BME280;25687;49.976;8.240;2022-10-16T04:10:26;99913.59;;;13.91;100.00
804;BME280;25687;49.976;8.240;2022-10-16T04:12:51;99914.34;;;13.80;100.00
804;BME280;25687;49.976;8.240;2022-10-16T04:15:16;99912.13;;;14.00;100.00
804;BME280;25687;49.976;8.240;2022-10-16T04:17:42;99911.31;;;13.99;100.00
804;BME280;25687;49.976;8.240;2022-10-16T04:20:08;99911.19;;;14.01;100.00
804;BME280;25687;49.976;8.240;2022-10-16T04:22:33;99908.03;;;14.09;100.00
804;BME280;25687;49.976;8.240;2022-10-16T04:24:58;99913.53;;;14.04;100.00
804;BME280;25687;49.976;8.240;2022-10-16T04:27:23;99918.78;;;14.15;100.00
804;BME280;25687;49.976;8.240;2022-10-16T04:29:49;99920.31;;;14.18;100.00
804;BME280;25687;49.976;8.240;2022-10-16T04:32:14;99929.97;;;14.27;100.00
804;BME280;25687;49.976;8.240;2022-10-16T04:34:39;99924.13;;;14.25;100.00
804;BME280;25687;49.976;8.240;2022-10-16T04:37:05;99932.03;;;14.11;100.00
804;BME280;25687;49.976;8.240;2022-10-16T04:39:31;99928.53;;;14.12;100.00
804;BME280;25687;49.976;8.240;2022-10-16T04:41:56;99924.56;;;14.19;100.00
804;BME280;25687;49.976;8.240;2022-10-16T04:44:21;99936.94;;;14.27;100.00
804;BME280;25687;49.976;8.240;2022-10-16T04:46:49;99938.84;;;14.36;100.00
804;BME280;25687;49.976;8.240;2022-10-16T04:49:15;99940.97;;;14.42;100.00
804;BME280;25687;49.976;8.240;2022-10-16T04:51:40;99944.66;;;14.51;100.00
804;BME280;25687;49.976;8.240;2022-10-16T04:54:05;99944.09;;;14.59;100.00
804;BME280;25687;49.976;8.240;2022-10-16T04:56:30;99938.22;;;14.57;100.00
804;BME280;25687;49.976;8.240;2022-10-16T04:58:56;99942.94;;;14.63;100.00
804;BME280;25687;49.976;8.240;2022-10-16T05:01:21;99945.81;;;14.47;100.00
804;BME280;25687;49.976;8.240;2022-10-16T05:03:46;99948.44;;;14.58;100.00
804;BME280;25687;49.976;8.240;2022-10-16T05:06:12;99945.03;;;14.58;100.00
804;BME280;25687;49.976;8.240;2022-10-16T05:08:37;99934.56;;;14.24;100.00
804;BME280;25687;49.976;8.240;2022-10-16T05:11:02;99934.47;;;14.25;100.00
804;BME280;25687;49.976;8.240;2022-10-16T05:13:27;99927.78;;;14.34;100.00
804;BME280;25687;49.976;8.240;2022-10-16T05:15:53;99938.78;;;14.25;100.00
804;BME280;25687;49.976;8.240;2022-10-16T05:18:18;99940.00;;;14.32;100.00
804;BME280;25687;49.976;8.240;2022-10-16T05:20:43;99929.97;;;14.27;100.00
804;BME280;25687;49.976;8.240;2022-10-16T05:23:09;99924.13;;;14.25;100.00
804;BME280;25687;49.976;8.240;2022-10-16T05:25:35;99927.50;;;14.26;100.00
804;BME280;25687;49.976;8.240;2022-10-16T05:28:01;99928.69;;;14.22;100.00
804;BME280;25687;49.976;8.240;2022-10-16T05:30:26;99926.16;;;14.09;100.00
804;BME280;25687;49.976;8.240;2022-10-16T05:32:52;99941.00;;;14.18;100.00
804;BME280;25687;49.976;8.240;2022-10-16T05:35:18;99945.84;;;14.23;100.00
804;BME280;25687;49.976;8.240;2022-10-16T05:37:43;99938.22;;;14.32;100.00
804;BME280;25687;49.976;8.240;2022-10-16T05:40:10;99950.63;;;14.40;100.00
804;BME280;25687;49.976;8.240;2022-10-16T05:42:35;99956.16;;;14.47;100.00
804;BME280;25687;49.976;8.240;2022-10-16T05:45:01;99973.97;;;14.51;100.00
804;BME280;25687;49.976;8.240;2022-10-16T05:47:26;99972.50;;;14.47;100.00
804;BME280;25687;49.976;8.240;2022-10-16T05:49:51;99974.00;;;14.39;100.00
804;BME280;25687;49.976;8.240;2022-10-16T05:52:17;99971.66;;;14.35;100.00
804;BME280;25687;49.976;8.240;2022-10-16T05:54:42;99980.63;;;14.43;100.00
804;BME280;25687;49.976;8.240;2022-10-16T05:57:08;99982.66;;;14.26;100.00
804;BME280;25687;49.976;8.240;2022-10-16T05:59:33;99979.16;;;14.03;100.00
804;BME280;25687;49.976;8.240;2022-10-16T06:01:59;99984.63;;;13.98;100.00
804;BME280;25687;49.976;8.240;2022-10-16T06:04:24;99987.84;;;13.89;100.00
804;BME280;25687;49.976;8.240;2022-10-16T06:06:49;99994.97;;;13.98;100.00
804;BME280;25687;49.976;8.240;2022-10-16T06:09:15;99989.94;;;14.21;100.00
804;BME280;25687;49.976;8.240;2022-10-16T06:11:40;99986.22;;;14.25;100.00
804;BME280;25687;49.976;8.240;2022-10-16T06:14:05;100000.72;;;14.39;100.00
804;BME280;25687;49.976;8.240;2022-10-16T06:16:35;100003.09;;;14.42;100.00
804;BME280;25687;49.976;8.240;2022-10-16T06:19:01;99998.63;;;14.44;100.00
804;BME280;25687;49.976;8.240;2022-10-16T06:21:28;99984.88;;;14.44;100.00
804;BME280;25687;49.976;8.240;2022-10-16T06:23:55;99980.19;;;14.49;100.00
804;BME280;25687;49.976;8.240;2022-10-16T06:26:23;99984.34;;;14.39;100.00
804;BME280;25687;49.976;8.240;2022-10-16T06:28:49;99983.75;;;14.35;100.00
804;BME280;25687;49.976;8.240;2022-10-16T06:31:16;99981.59;;;14.29;100.00
804;BME280;25687;49.976;8.240;2022-10-16T06:33:42;99994.22;;;14.33;100.00
804;BME280;25687;49.976;8.240;2022-10-16T06:36:10;100003.88;;;14.31;100.00
804;BME280;25687;49.976;8.240;2022-10-16T06:38:36;100008.25;;;14.42;100.00
804;BME280;25687;49.976;8.240;2022-10-16T06:41:02;100004.09;;;14.52;100.00
804;BME280;25687;49.976;8.240;2022-10-16T06:43:31;100003.69;;;14.46;100.00
804;BME280;25687;49.976;8.240;2022-10-16T06:46:05;100012.69;;;14.64;100.00
804;BME280;25687;49.976;8.240;2022-10-16T06:48:32;100009.56;;;14.72;100.00
804;BME280;25687;49.976;8.240;2022-10-16T06:53:27;100006.31;;;14.81;100.00
804;BME280;25687;49.976;8.240;2022-10-16T06:55:53;100008.34;;;14.89;100.00
804;BME280;25687;49.976;8.240;2022-10-16T06:58:18;100017.03;;;14.88;100.00
804;BME280;25687;49.976;8.240;2022-10-16T07:00:44;100024.47;;;14.93;100.00
804;BME280;25687;49.976;8.240;2022-10-16T07:03:09;100030.88;;;15.00;100.00
804;BME280;25687;49.976;8.240;2022-10-16T07:05:41;100033.31;;;14.90;100.00
804;BME280;25687;49.976;8.240;2022-10-16T07:08:08;100023.78;;;14.42;100.00
804;BME280;25687;49.976;8.240;2022-10-16T07:10:34;100020.78;;;14.11;100.00
804;BME280;25687;49.976;8.240;2022-10-16T07:13:00;100030.50;;;14.20;100.00
804;BME280;25687;49.976;8.240;2022-10-16T07:15:26;100039.25;;;14.31;100.00
804;BME280;25687;49.976;8.240;2022-10-16T07:17:51;100049.22;;;14.48;100.00
804;BME280;25687;49.976;8.240;2022-10-16T07:20:18;100055.13;;;14.50;100.00
804;BME280;25687;49.976;8.240;2022-10-16T07:22:43;100052.81;;;14.59;100.00
804;BME280;25687;49.976;8.240;2022-10-16T07:25:10;100058.00;;;14.59;100.00
804;BME280;25687;49.976;8.240;2022-10-16T07:27:36;100070.09;;;14.71;100.00
804;BME280;25687;49.976;8.240;2022-10-16T07:30:01;100068.47;;;14.81;100.00
804;BME280;25687;49.976;8.240;2022-10-16T07:32:27;100069.06;;;14.85;100.00
804;BME280;25687;49.976;8.240;2022-10-16T07:34:52;100084.72;;;14.83;100.00
804;BME280;25687;49.976;8.240;2022-10-16T07:37:18;100088.19;;;14.95;100.00
804;BME280;25687;49.976;8.240;2022-10-16T07:39:43;100084.69;;;15.08;100.00
804;BME280;25687;49.976;8.240;2022-10-16T07:42:09;100087.09;;;15.22;100.00
804;BME280;25687;49.976;8.240;2022-10-16T07:44:34;100085.09;;;15.26;100.00
804;BME280;25687;49.976;8.240;2022-10-16T07:46:59;100083.31;;;15.26;100.00
804;BME280;25687;49.976;8.240;2022-10-16T07:49:25;100092.31;;;15.45;100.00
804;BME280;25687;49.976;8.240;2022-10-16T07:51:50;100086.44;;;15.54;100.00
804;BME280;25687;49.976;8.240;2022-10-16T07:54:16;100095.50;;;15.48;100.00
804;BME280;25687;49.976;8.240;2022-10-16T07:56:41;100095.16;;;15.64;100.00
804;BME280;25687;49.976;8.240;2022-10-16T07:59:06;100108.59;;;15.70;100.00
804;BME280;25687;49.976;8.240;2022-10-16T08:01:32;100116.16;;;15.73;100.00
804;BME280;25687;49.976;8.240;2022-10-16T08:03:57;100131.03;;;15.82;100.00
804;BME280;25687;49.976;8.240;2022-10-16T08:06:22;100122.31;;;15.94;100.00
804;BME280;25687;49.976;8.240;2022-10-16T08:08:48;100122.44;;;15.93;100.00
804;BME280;25687;49.976;8.240;2022-10-16T08:11:13;100134.56;;;16.04;100.00
804;BME280;25687;49.976;8.240;2022-10-16T08:13:40;100132.81;;;16.16;100.00
804;BME280;25687;49.976;8.240;2022-10-16T08:16:06;100138.25;;;16.24;100.00
804;BME280;25687;49.976;8.240;2022-10-16T08:18:39;100127.97;;;16.22;100.00
804;BME280;25687;49.976;8.240;2022-10-16T08:21:05;100126.78;;;16.26;100.00
804;BME280;25687;49.976;8.240;2022-10-16T08:23:32;100145.56;;;16.19;100.00
804;BME280;25687;49.976;8.240;2022-10-16T08:26:05;100137.53;;;16.22;100.00
804;BME280;25687;49.976;8.240;2022-10-16T08:28:30;100143.06;;;16.40;100.00
804;BME280;25687;49.976;8.240;2022-10-16T08:30:55;100141.88;;;16.44;100.00
804;BME280;25687;49.976;8.240;2022-10-16T08:33:22;100152.09;;;16.57;100.00
804;BME280;25687;49.976;8.240;2022-10-16T08:35:53;100146.78;;;16.70;100.00
804;BME280;25687;49.976;8.240;2022-10-16T08:38:19;100151.78;;;16.50;100.00
804;BME280;25687;49.976;8.240;2022-10-16T08:40:45;100163.69;;;16.53;100.00
804;BME280;25687;49.976;8.240;2022-10-16T08:46:15;100157.97;;;16.70;100.00
804;BME280;25687;49.976;8.240;2022-10-16T08:48:51;100168.81;;;16.75;100.00
804;BME280;25687;49.976;8.240;2022-10-16T08:51:21;100172.28;;;16.53;100.00
804;BME280;25687;49.976;8.240;2022-10-16T08:53:56;100184.34;;;16.43;100.00
804;BME280;25687;49.976;8.240;2022-10-16T08:56:23;100185.06;;;16.45;100.00
804;BME280;25687;49.976;8.240;2022-10-16T08:58:48;100194.75;;;16.32;100.00
804;BME280;25687;49.976;8.240;2022-10-16T09:01:17;100188.25;;;16.26;100.00
804;BME280;25687;49.976;8.240;2022-10-16T09:06:39;100191.19;;;16.10;100.00
804;BME280;25687;49.976;8.240;2022-10-16T09:09:30;100214.53;;;15.98;100.00
804;BME280;25687;49.976;8.240;2022-10-16T09:12:24;100215.72;;;15.94;100.00
804;BME280;25687;49.976;8.240;2022-10-16T09:15:01;100218.22;;;15.60;100.00
804;BME280;25687;49.976;8.240;2022-10-16T09:23:34;100225.13;;;15.00;100.00
804;BME280;25687;49.976;8.240;2022-10-16T09:26:01;100217.25;;;15.26;100.00
804;BME280;25687;49.976;8.240;2022-10-16T09:28:27;100229.81;;;15.43;100.00
804;BME280;25687;49.976;8.240;2022-10-16T09:30:53;100232.66;;;15.52;100.00
804;BME280;25687;49.976;8.240;2022-10-16T09:33:22;100249.28;;;15.85;100.00
804;BME280;25687;49.976;8.240;2022-10-16T09:35:53;100250.25;;;15.95;100.00
804;BME280;25687;49.976;8.240;2022-10-16T09:38:30;100251.06;;;15.60;100.00
804;BME280;25687;49.976;8.240;2022-10-16T09:40:57;100244.19;;;15.72;100.00
804;BME280;25687;49.976;8.240;2022-10-16T09:43:36;100244.34;;;15.57;100.00
804;BME280;25687;49.976;8.240;2022-10-16T09:46:06;100242.38;;;15.61;100.00
804;BME280;25687;49.976;8.240;2022-10-16T09:48:47;100244.97;;;15.37;100.00
804;BME280;25687;49.976;8.240;2022-10-16T09:53:46;100246.66;;;15.73;100.00
804;BME280;25687;49.976;8.240;2022-10-16T09:56:21;100245.75;;;15.86;100.00
804;BME280;25687;49.976;8.240;2022-10-16T09:58:55;100256.63;;;16.02;100.00
804;BME280;25687;49.976;8.240;2022-10-16T10:01:24;100255.13;;;16.11;100.00
804;BME280;25687;49.976;8.240;2022-10-16T10:03:55;100255.63;;;16.27;100.00
804;BME280;25687;49.976;8.240;2022-10-16T10:06:28;100247.97;;;16.49;100.00
804;BME280;25687;49.976;8.240;2022-10-16T10:14:20;100248.56;;;16.52;100.00
804;BME280;25687;49.976;8.240;2022-10-16T10:16:47;100251.59;;;16.80;100.00
804;BME280;25687;49.976;8.240;2022-10-16T10:19:15;100247.59;;;16.53;100.00
804;BME280;25687;49.976;8.240;2022-10-16T10:21:40;100251.25;;;16.39;100.00
804;BME280;25687;49.976;8.240;2022-10-16T10:24:10;100255.28;;;16.43;100.00
804;BME280;25687;49.976;8.240;2022-10-16T10:26:36;100246.78;;;16.30;100.00
804;BME280;25687;49.976;8.240;2022-10-16T10:32:46;100253.84;;;16.17;100.00
804;BME280;25687;49.976;8.240;2022-10-16T10:35:18;100253.03;;;16.50;100.00
804;BME280;25687;49.976;8.240;2022-10-16T10:55:16;100244.88;;;18.38;100.00
804;BME280;25687;49.976;8.240;2022-10-16T10:57:22;100234.44;;;18.69;100.00
804;BME280;25687;49.976;8.240;2022-10-16T11:00:07;100227.09;;;18.44;100.00
804;BME280;25687;49.976;8.240;2022-10-16T11:02:40;100237.66;;;18.93;100.00
804;BME280;25687;49.976;8.240;2022-10-16T11:05:23;100239.09;;;18.66;100.00
804;BME280;25687;49.976;8.240;2022-10-16T11:07:58;100243.59;;;18.64;100.00
804;BME280;25687;49.976;8.240;2022-10-16T11:10:28;100234.16;;;18.32;100.00
804;BME280;25687;49.976;8.240;2022-10-16T11:13:07;100232.00;;;18.37;100.00
804;BME280;25687;49.976;8.240;2022-10-16T11:15:38;100233.16;;;18.64;100.00
804;BME280;25687;49.976;8.240;2022-10-16T11:18:30;100228.91;;;18.63;100.00
804;BME280;25687;49.976;8.240;2022-10-16T11:21:02;100237.75;;;18.10;100.00
804;BME280;25687;49.976;8.240;2022-10-16T11:26:16;100241.84;;;18.64;100.00
804;BME280;25687;49.976;8.240;2022-10-16T11:28:49;100235.09;;;18.71;100.00
804;BME280;25687;49.976;8.240;2022-10-16T11:33:52;100234.94;;;19.24;100.00
804;BME280;25687;49.976;8.240;2022-10-16T11:36:27;100229.44;;;19.07;100.00
804;BME280;25687;49.976;8.240;2022-10-16T11:41:36;100220.34;;;18.82;100.00
804;BME280;25687;49.976;8.240;2022-10-16T11:47:24;100219.72;;;18.99;100.00
804;BME280;25687;49.976;8.240;2022-10-16T11:50:01;100222.03;;;19.22;100.00
804;BME280;25687;49.976;8.240;2022-10-16T11:55:21;100221.63;;;19.37;100.00
804;BME280;25687;49.976;8.240;2022-10-16T11:57:59;100223.38;;;19.65;100.00
804;BME280;25687;49.976;8.240;2022-10-16T12:00:36;100218.72;;;19.69;100.00
804;BME280;25687;49.976;8.240;2022-10-16T12:03:25;100218.88;;;19.48;100.00
804;BME280;25687;49.976;8.240;2022-10-16T12:08:17;100217.22;;;19.86;100.00
804;BME280;25687;49.976;8.240;2022-10-16T12:10:46;100213.72;;;19.95;100.00
804;BME280;25687;49.976;8.240;2022-10-16T12:13:33;100215.28;;;19.78;100.00
804;BME280;25687;49.976;8.240;2022-10-16T12:16:21;100225.91;;;19.28;100.00
804;BME280;25687;49.976;8.240;2022-10-16T12:18:47;100227.91;;;19.83;100.00
804;BME280;25687;49.976;8.240;2022-10-16T12:21:15;100226.84;;;19.37;100.00
804;BME280;25687;49.976;8.240;2022-10-16T12:23:51;100232.75;;;19.48;100.00
804;BME280;25687;49.976;8.240;2022-10-16T12:26:28;100230.13;;;19.88;100.00
804;BME280;25687;49.976;8.240;2022-10-16T12:28:55;100228.38;;;20.16;100.00
804;BME280;25687;49.976;8.240;2022-10-16T12:31:21;100222.94;;;20.37;100.00
804;BME280;25687;49.976;8.240;2022-10-16T12:34:21;100228.16;;;20.37;100.00
804;BME280;25687;49.976;8.240;2022-10-16T12:36:48;100220.91;;;20.87;100.00
804;BME280;25687;49.976;8.240;2022-10-16T12:39:24;100227.84;;;20.96;100.00
804;BME280;25687;49.976;8.240;2022-10-16T12:42:20;100236.78;;;20.10;100.00
804;BME280;25687;49.976;8.240;2022-10-16T12:44:45;100239.13;;;20.03;100.00
804;BME280;25687;49.976;8.240;2022-10-16T12:49:54;100226.78;;;19.95;100.00
804;BME280;25687;49.976;8.240;2022-10-16T12:52:26;100223.91;;;20.36;100.00
804;BME280;25687;49.976;8.240;2022-10-16T12:54:56;100221.81;;;20.40;100.00
804;BME280;25687;49.976;8.240;2022-10-16T13:00:32;100233.78;;;20.70;100.00
804;BME280;25687;49.976;8.240;2022-10-16T13:17:01;100231.00;;;20.82;100.00
804;BME280;25687;49.976;8.240;2022-10-16T13:20:00;100236.41;;;20.70;100.00
804;BME280;25687;49.976;8.240;2022-10-16T13:22:51;100235.75;;;20.30;100.00
804;BME280;25687;49.976;8.240;2022-10-16T13:27:56;100240.78;;;20.70;100.00
804;BME280;25687;49.976;8.240;2022-10-16T13:30:33;100237.16;;;20.53;100.00
804;BME280;25687;49.976;8.240;2022-10-16T13:33:15;100235.81;;;20.48;100.00
804;BME280;25687;49.976;8.240;2022-10-16T13:35:50;100228.16;;;20.65;100.00
804;BME280;25687;49.976;8.240;2022-10-16T13:38:27;100225.31;;;20.58;100.00
804;BME280;25687;49.976;8.240;2022-10-16T13:40:59;100219.31;;;20.48;100.00
804;BME280;25687;49.976;8.240;2022-10-16T13:43:41;100223.94;;;20.26;100.00
804;BME280;25687;49.976;8.240;2022-10-16T13:46:16;100220.28;;;20.09;100.00
804;BME280;25687;49.976;8.240;2022-10-16T13:48:42;100214.22;;;20.19;100.00
804;BME280;25687;49.976;8.240;2022-10-16T13:51:13;100203.13;;;20.07;100.00
804;BME280;25687;49.976;8.240;2022-10-16T13:53:40;100195.69;;;20.40;100.00
804;BME280;25687;49.976;8.240;2022-10-16T13:56:12;100195.31;;;20.35;100.00
804;BME280;25687;49.976;8.240;2022-10-16T13:58:38;100210.53;;;20.11;100.00
804;BME280;25687;49.976;8.240;2022-10-16T14:01:15;100227.50;;;19.88;100.00
804;BME280;25687;49.976;8.240;2022-10-16T14:03:41;100217.78;;;20.18;100.00
804;BME280;25687;49.976;8.240;2022-10-16T14:06:19;100221.50;;;20.15;100.00
804;BME280;25687;49.976;8.240;2022-10-16T14:08:55;100226.53;;;20.26;100.00
804;BME280;25687;49.976;8.240;2022-10-16T14:11:24;100230.69;;;20.19;100.00
804;BME280;25687;49.976;8.240;2022-10-16T14:13:51;100227.94;;;20.30;100.00
804;BME280;25687;49.976;8.240;2022-10-16T14:16:27;100231.47;;;20.39;100.00
804;BME280;25687;49.976;8.240;2022-10-16T14:18:57;100232.56;;;20.37;100.00
804;BME280;25687;49.976;8.240;2022-10-16T14:21:24;100228.59;;;20.60;100.00
804;BME280;25687;49.976;8.240;2022-10-16T14:23:50;100234.16;;;20.47;100.00
804;BME280;25687;49.976;8.240;2022-10-16T14:26:21;100232.66;;;20.45;100.00
804;BME280;25687;49.976;8.240;2022-10-16T14:28:48;100226.91;;;20.41;100.00
804;BME280;25687;49.976;8.240;2022-10-16T14:31:30;100232.69;;;20.07;100.00
804;BME280;25687;49.976;8.240;2022-10-16T14:33:58;100232.38;;;20.10;100.00
804;BME280;25687;49.976;8.240;2022-10-16T14:36:26;100222.72;;;20.30;100.00
804;BME280;25687;49.976;8.240;2022-10-16T14:39:05;100231.16;;;20.42;100.00
804;BME280;25687;49.976;8.240;2022-10-16T14:41:45;100235.34;;;20.25;100.00
804;BME280;25687;49.976;8.240;2022-10-16T14:44:12;100235.47;;;20.34;100.00
804;BME280;25687;49.976;8.240;2022-10-16T14:46:40;100228.69;;;20.41;100.00